Newald, Wisconsin
Current Conditions -  °F | °C
As of 9:50 PM on Wednesday 28 Jan 2015 (Local Time) from KEGV Reporting Station
Overcast Overcast  
Wind Chill: 26°   Ceiling: 2700
Heat Index: 26°   Visibility: 10mi
Dew Point: 20°   Wind: 3mph
Humidity: 76%   Direction: 160°SSE
Pressure: 29.8"   Gusts: NA
Location:  45.724°N, 88.8585°W
Report Text: KEGV 290350Z AUTO 16003KT 10SM OVC027 M03/M07 A2980 RMK AO2 T10321068
Loading
Personal Weather Stations






























Interactive Weather Map New forecast layout! Learn more

10-Day Weather Forecast

Advertisements
Track Severe Weather on mobile